sensor_id;sensor_type;location;lat;lon;timestamp;temperature;humidity
39503;DHT22;26970;49.900;10.774;2023-04-03T00:00:53;0.80;99.90
39503;DHT22;26970;49.900;10.774;2023-04-03T00:03:19;0.80;99.90
39503;DHT22;26970;49.900;10.774;2023-04-03T00:05:46;0.80;99.90
39503;DHT22;26970;49.900;10.774;2023-04-03T00:08:11;0.80;99.90
39503;DHT22;26970;49.900;10.774;2023-04-03T00:10:37;0.90;99.90
39503;DHT22;26970;49.900;10.774;2023-04-03T00:13:04;0.90;99.90
39503;DHT22;26970;49.900;10.774;2023-04-03T00:15:30;1.00;99.90
39503;DHT22;26970;49.900;10.774;2023-04-03T00:17:56;1.00;99.90
39503;DHT22;26970;49.900;10.774;2023-04-03T00:20:22;1.10;99.90
39503;DHT22;26970;49.900;10.774;2023-04-03T00:22:48;1.10;99.90
39503;DHT22;26970;49.900;10.774;2023-04-03T00:25:13;1.10;99.90
39503;DHT22;26970;49.900;10.774;2023-04-03T00:27:40;1.10;99.90
39503;DHT22;26970;49.900;10.774;2023-04-03T00:30:07;1.10;99.90
39503;DHT22;26970;49.900;10.774;2023-04-03T00:32:34;1.20;99.90
39503;DHT22;26970;49.900;10.774;2023-04-03T00:34:59;1.20;99.90
39503;DHT22;26970;49.900;10.774;2023-04-03T00:37:25;1.10;99.90
39503;DHT22;26970;49.900;10.774;2023-04-03T00:39:50;1.10;99.90
39503;DHT22;26970;49.900;10.774;2023-04-03T00:42:16;1.10;99.90
39503;DHT22;26970;49.900;10.774;2023-04-03T00:47:11;1.10;99.90
39503;DHT22;26970;49.900;10.774;2023-04-03T00:49:37;1.10;99.90
39503;DHT22;26970;49.900;10.774;2023-04-03T00:52:08;1.10;99.90
39503;DHT22;26970;49.900;10.774;2023-04-03T00:54:36;1.10;99.90
39503;DHT22;26970;49.900;10.774;2023-04-03T00:57:03;1.10;99.90
39503;DHT22;26970;49.900;10.774;2023-04-03T00:59:33;1.10;99.90
39503;DHT22;26970;49.900;10.774;2023-04-03T01:02:00;1.10;99.90
39503;DHT22;26970;49.900;10.774;2023-04-03T01:04:35;1.20;99.90
39503;DHT22;26970;49.900;10.774;2023-04-03T01:07:09;1.20;99.90
39503;DHT22;26970;49.900;10.774;2023-04-03T01:09:36;1.30;99.90
39503;DHT22;26970;49.900;10.774;2023-04-03T01:12:25;1.30;99.90
39503;DHT22;26970;49.900;10.774;2023-04-03T01:14:59;1.40;99.90
39503;DHT22;26970;49.900;10.774;2023-04-03T01:23:21;1.50;99.90
39503;DHT22;26970;49.900;10.774;2023-04-03T01:25:54;1.50;99.90
39503;DHT22;26970;49.900;10.774;2023-04-03T01:28:31;1.50;99.90
39503;DHT22;26970;49.900;10.774;2023-04-03T01:31:27;1.50;99.90
39503;DHT22;26970;49.900;10.774;2023-04-03T01:33:54;1.60;99.90
39503;DHT22;26970;49.900;10.774;2023-04-03T01:36:25;1.60;99.90
39503;DHT22;26970;49.900;10.774;2023-04-03T01:38:53;1.60;99.90
39503;DHT22;26970;49.900;10.774;2023-04-03T01:41:19;1.80;99.90
39503;DHT22;26970;49.900;10.774;2023-04-03T01:43:46;1.70;99.90
39503;DHT22;26970;49.900;10.774;2023-04-03T01:46:12;1.70;99.90
39503;DHT22;26970;49.900;10.774;2023-04-03T01:48:38;1.80;99.90
39503;DHT22;26970;49.900;10.774;2023-04-03T01:51:03;1.80;99.90
39503;DHT22;26970;49.900;10.774;2023-04-03T01:53:29;1.80;99.90
39503;DHT22;26970;49.900;10.774;2023-04-03T01:55:55;1.80;99.90
39503;DHT22;26970;49.900;10.774;2023-04-03T01:58:21;1.90;99.90
39503;DHT22;26970;49.900;10.774;2023-04-03T02:00:46;1.90;99.90
39503;DHT22;26970;49.900;10.774;2023-04-03T02:03:12;1.90;99.90
39503;DHT22;26970;49.900;10.774;2023-04-03T02:05:38;1.90;99.90
39503;DHT22;26970;49.900;10.774;2023-04-03T02:08:03;1.90;99.90
39503;DHT22;26970;49.900;10.774;2023-04-03T02:10:29;1.90;99.90
39503;DHT22;26970;49.900;10.774;2023-04-03T02:12:54;1.90;99.90
39503;DHT22;26970;49.900;10.774;2023-04-03T02:15:20;1.90;99.90
39503;DHT22;26970;49.900;10.774;2023-04-03T02:17:46;1.80;99.90
39503;DHT22;26970;49.900;10.774;2023-04-03T02:20:12;1.90;99.90
39503;DHT22;26970;49.900;10.774;2023-04-03T02:22:37;1.80;99.90
39503;DHT22;26970;49.900;10.774;2023-04-03T02:25:03;1.90;99.90
39503;DHT22;26970;49.900;10.774;2023-04-03T02:27:29;1.80;99.90
39503;DHT22;26970;49.900;10.774;2023-04-03T02:29:55;1.80;99.90
39503;DHT22;26970;49.900;10.774;2023-04-03T02:32:20;1.90;99.90
39503;DHT22;26970;49.900;10.774;2023-04-03T02:34:46;1.80;99.90
39503;DHT22;26970;49.900;10.774;2023-04-03T02:37:12;1.80;99.90
39503;DHT22;26970;49.900;10.774;2023-04-03T02:39:37;1.90;99.90
39503;DHT22;26970;49.900;10.774;2023-04-03T02:42:03;1.90;99.90
39503;DHT22;26970;49.900;10.774;2023-04-03T02:44:29;1.90;99.90
39503;DHT22;26970;49.900;10.774;2023-04-03T02:46:55;1.90;99.90
39503;DHT22;26970;49.900;10.774;2023-04-03T02:49:21;2.00;99.90
39503;DHT22;26970;49.900;10.774;2023-04-03T02:51:46;2.00;99.90
39503;DHT22;26970;49.900;10.774;2023-04-03T02:54:13;2.00;99.90
39503;DHT22;26970;49.900;10.774;2023-04-03T02:56:39;2.00;99.90
39503;DHT22;26970;49.900;10.774;2023-04-03T02:59:04;1.90;99.90
39503;DHT22;26970;49.900;10.774;2023-04-03T03:01:30;1.90;99.90
39503;DHT22;26970;49.900;10.774;2023-04-03T03:03:58;2.40;99.90
39503;DHT22;26970;49.900;10.774;2023-04-03T03:06:24;2.00;99.90
39503;DHT22;26970;49.900;10.774;2023-04-03T03:08:50;1.90;99.90
39503;DHT22;26970;49.900;10.774;2023-04-03T03:11:15;1.90;99.90
39503;DHT22;26970;49.900;10.774;2023-04-03T03:13:41;1.90;99.90
39503;DHT22;26970;49.900;10.774;2023-04-03T03:16:07;2.00;99.90
39503;DHT22;26970;49.900;10.774;2023-04-03T03:18:33;1.90;99.90
39503;DHT22;26970;49.900;10.774;2023-04-03T03:21:00;2.00;99.90
39503;DHT22;26970;49.900;10.774;2023-04-03T03:23:28;1.90;99.90
39503;DHT22;26970;49.900;10.774;2023-04-03T03:26:03;1.80;99.90
39503;DHT22;26970;49.900;10.774;2023-04-03T03:28:30;1.80;99.90
39503;DHT22;26970;49.900;10.774;2023-04-03T03:30:58;1.90;99.90
39503;DHT22;26970;49.900;10.774;2023-04-03T03:33:24;1.90;99.90
39503;DHT22;26970;49.900;10.774;2023-04-03T03:35:51;1.90;99.90
39503;DHT22;26970;49.900;10.774;2023-04-03T03:38:17;1.90;99.90
39503;DHT22;26970;49.900;10.774;2023-04-03T03:40:42;1.90;99.90
39503;DHT22;26970;49.900;10.774;2023-04-03T03:43:08;1.80;99.90
39503;DHT22;26970;49.900;10.774;2023-04-03T03:45:34;1.80;99.90
39503;DHT22;26970;49.900;10.774;2023-04-03T03:48:01;1.80;99.90
39503;DHT22;26970;49.900;10.774;2023-04-03T03:50:27;1.80;99.90
39503;DHT22;26970;49.900;10.774;2023-04-03T03:52:52;1.60;99.90
39503;DHT22;26970;49.900;10.774;2023-04-03T03:55:18;1.70;99.90
39503;DHT22;26970;49.900;10.774;2023-04-03T03:57:43;1.70;99.90
39503;DHT22;26970;49.900;10.774;2023-04-03T04:00:10;1.70;99.90
39503;DHT22;26970;49.900;10.774;2023-04-03T04:02:35;1.60;99.90
39503;DHT22;26970;49.900;10.774;2023-04-03T04:05:01;1.60;99.90
39503;DHT22;26970;49.900;10.774;2023-04-03T04:07:27;1.60;99.90
39503;DHT22;26970;49.900;10.774;2023-04-03T04:09:54;1.60;99.90
39503;DHT22;26970;49.900;10.774;2023-04-03T04:12:20;1.60;99.90
39503;DHT22;26970;49.900;10.774;2023-04-03T04:14:46;1.50;99.90
39503;DHT22;26970;49.900;10.774;2023-04-03T04:17:14;1.50;99.90
39503;DHT22;26970;49.900;10.774;2023-04-03T04:19:40;1.50;99.90
39503;DHT22;26970;49.900;10.774;2023-04-03T04:22:05;1.50;99.90
39503;DHT22;26970;49.900;10.774;2023-04-03T04:24:31;1.50;99.90
39503;DHT22;26970;49.900;10.774;2023-04-03T04:26:57;1.50;99.90
39503;DHT22;26970;49.900;10.774;2023-04-03T04:29:23;1.50;99.90
39503;DHT22;26970;49.900;10.774;2023-04-03T04:31:48;1.50;99.90
39503;DHT22;26970;49.900;10.774;2023-04-03T04:34:14;1.40;99.90
39503;DHT22;26970;49.900;10.774;2023-04-03T04:36:40;1.40;99.90
39503;DHT22;26970;49.900;10.774;2023-04-03T04:39:06;1.40;99.90
39503;DHT22;26970;49.900;10.774;2023-04-03T04:41:31;1.30;99.90
39503;DHT22;26970;49.900;10.774;2023-04-03T04:43:57;1.30;99.90
39503;DHT22;26970;49.900;10.774;2023-04-03T04:46:23;1.20;99.90
39503;DHT22;26970;49.900;10.774;2023-04-03T04:48:49;1.30;99.90
39503;DHT22;26970;49.900;10.774;2023-04-03T04:51:15;1.20;99.90
39503;DHT22;26970;49.900;10.774;2023-04-03T04:53:41;1.20;99.90
39503;DHT22;26970;49.900;10.774;2023-04-03T04:56:08;1.20;99.90
39503;DHT22;26970;49.900;10.774;2023-04-03T04:58:34;1.20;99.90
39503;DHT22;26970;49.900;10.774;2023-04-03T05:01:04;1.10;99.90
39503;DHT22;26970;49.900;10.774;2023-04-03T05:03:30;1.10;99.90
39503;DHT22;26970;49.900;10.774;2023-04-03T05:05:56;1.10;99.90
39503;DHT22;26970;49.900;10.774;2023-04-03T05:08:21;1.00;99.90
39503;DHT22;26970;49.900;10.774;2023-04-03T05:10:47;1.00;99.90
39503;DHT22;26970;49.900;10.774;2023-04-03T05:13:13;1.30;99.90
39503;DHT22;26970;49.900;10.774;2023-04-03T05:15:38;1.00;99.90
39503;DHT22;26970;49.900;10.774;2023-04-03T05:18:04;1.10;99.90
39503;DHT22;26970;49.900;10.774;2023-04-03T05:20:31;1.00;99.90
39503;DHT22;26970;49.900;10.774;2023-04-03T05:22:57;0.90;99.90
39503;DHT22;26970;49.900;10.774;2023-04-03T05:25:23;0.90;99.90
39503;DHT22;26970;49.900;10.774;2023-04-03T05:27:48;1.00;99.90
39503;DHT22;26970;49.900;10.774;2023-04-03T05:30:14;1.00;99.90
39503;DHT22;26970;49.900;10.774;2023-04-03T05:32:40;1.00;99.90
39503;DHT22;26970;49.900;10.774;2023-04-03T05:35:06;1.00;99.90
39503;DHT22;26970;49.900;10.774;2023-04-03T05:37:33;1.10;99.90
39503;DHT22;26970;49.900;10.774;2023-04-03T05:39:58;1.10;99.90
39503;DHT22;26970;49.900;10.774;2023-04-03T05:42:24;1.20;99.90
39503;DHT22;26970;49.900;10.774;2023-04-03T05:44:50;1.30;99.90
39503;DHT22;26970;49.900;10.774;2023-04-03T05:47:16;1.30;99.90
39503;DHT22;26970;49.900;10.774;2023-04-03T05:49:42;1.30;99.90
39503;DHT22;26970;49.900;10.774;2023-04-03T05:52:27;1.30;99.90
39503;DHT22;26970;49.900;10.774;2023-04-03T05:54:53;1.30;99.90
39503;DHT22;26970;49.900;10.774;2023-04-03T05:57:19;1.30;99.90
39503;DHT22;26970;49.900;10.774;2023-04-03T05:59:46;1.50;99.90
39503;DHT22;26970;49.900;10.774;2023-04-03T06:02:17;1.50;99.90
39503;DHT22;26970;49.900;10.774;2023-04-03T06:04:44;1.50;99.90
39503;DHT22;26970;49.900;10.774;2023-04-03T06:07:18;1.60;99.90
39503;DHT22;26970;49.900;10.774;2023-04-03T06:09:47;1.60;99.90
39503;DHT22;26970;49.900;10.774;2023-04-03T06:12:13;1.50;99.90
39503;DHT22;26970;49.900;10.774;2023-04-03T06:14:38;1.60;99.90
39503;DHT22;26970;49.900;10.774;2023-04-03T06:17:04;1.60;99.90
39503;DHT22;26970;49.900;10.774;2023-04-03T06:19:30;1.70;99.90
39503;DHT22;26970;49.900;10.774;2023-04-03T06:21:55;1.70;99.90
39503;DHT22;26970;49.900;10.774;2023-04-03T06:24:21;1.60;99.90
39503;DHT22;26970;49.900;10.774;2023-04-03T06:26:49;1.60;99.90
39503;DHT22;26970;49.900;10.774;2023-04-03T06:29:16;1.60;99.90
39503;DHT22;26970;49.900;10.774;2023-04-03T06:31:42;1.70;99.90
39503;DHT22;26970;49.900;10.774;2023-04-03T06:34:08;1.80;99.90
39503;DHT22;26970;49.900;10.774;2023-04-03T06:36:35;1.80;99.90
39503;DHT22;26970;49.900;10.774;2023-04-03T06:39:01;2.20;99.90
39503;DHT22;26970;49.900;10.774;2023-04-03T06:41:28;2.00;99.90
39503;DHT22;26970;49.900;10.774;2023-04-03T06:43:54;2.20;99.90
39503;DHT22;26970;49.900;10.774;2023-04-03T06:46:22;1.90;99.90
39503;DHT22;26970;49.900;10.774;2023-04-03T06:48:48;1.90;99.90
39503;DHT22;26970;49.900;10.774;2023-04-03T06:51:26;2.00;99.90
39503;DHT22;26970;49.900;10.774;2023-04-03T06:53:53;1.90;99.90
39503;DHT22;26970;49.900;10.774;2023-04-03T06:56:20;1.90;99.90
39503;DHT22;26970;49.900;10.774;2023-04-03T06:58:46;1.80;99.90
39503;DHT22;26970;49.900;10.774;2023-04-03T07:01:13;1.70;99.90
39503;DHT22;26970;49.900;10.774;2023-04-03T07:03:40;1.70;99.90
39503;DHT22;26970;49.900;10.774;2023-04-03T07:06:06;1.90;99.90
39503;DHT22;26970;49.900;10.774;2023-04-03T07:08:33;1.80;99.90
39503;DHT22;26970;49.900;10.774;2023-04-03T07:10:59;1.90;99.90
39503;DHT22;26970;49.900;10.774;2023-04-03T07:13:24;2.10;99.90
39503;DHT22;26970;49.900;10.774;2023-04-03T07:15:50;2.00;99.90
39503;DHT22;26970;49.900;10.774;2023-04-03T07:18:16;3.00;99.90
39503;DHT22;26970;49.900;10.774;2023-04-03T07:20:44;2.20;99.90
39503;DHT22;26970;49.900;10.774;2023-04-03T07:23:10;2.20;99.90
39503;DHT22;26970;49.900;10.774;2023-04-03T07:25:36;2.30;99.90
39503;DHT22;26970;49.900;10.774;2023-04-03T07:28:03;2.20;99.90
39503;DHT22;26970;49.900;10.774;2023-04-03T07:30:29;2.40;99.90
39503;DHT22;26970;49.900;10.774;2023-04-03T07:32:54;2.10;99.90
39503;DHT22;26970;49.900;10.774;2023-04-03T07:35:20;2.20;99.90
39503;DHT22;26970;49.900;10.774;2023-04-03T07:37:46;2.50;99.90
39503;DHT22;26970;49.900;10.774;2023-04-03T07:40:12;2.70;99.90
39503;DHT22;26970;49.900;10.774;2023-04-03T07:42:38;2.50;99.90
39503;DHT22;26970;49.900;10.774;2023-04-03T07:45:04;2.50;99.90
39503;DHT22;26970;49.900;10.774;2023-04-03T07:47:30;2.60;99.90
39503;DHT22;26970;49.900;10.774;2023-04-03T07:49:56;2.70;99.90
39503;DHT22;26970;49.900;10.774;2023-04-03T07:52:22;2.70;99.90
39503;DHT22;26970;49.900;10.774;2023-04-03T07:54:48;2.70;99.90
39503;DHT22;26970;49.900;10.774;2023-04-03T07:57:14;2.70;99.90
39503;DHT22;26970;49.900;10.774;2023-04-03T07:59:40;2.60;99.90
39503;DHT22;26970;49.900;10.774;2023-04-03T08:02:11;2.70;99.90
39503;DHT22;26970;49.900;10.774;2023-04-03T08:04:37;2.70;99.90
39503;DHT22;26970;49.900;10.774;2023-04-03T08:07:03;2.60;99.90
39503;DHT22;26970;49.900;10.774;2023-04-03T08:09:28;1.90;99.90
39503;DHT22;26970;49.900;10.774;2023-04-03T08:11:54;2.30;99.90
39503;DHT22;26970;49.900;10.774;2023-04-03T08:14:20;2.40;99.90
39503;DHT22;26970;49.900;10.774;2023-04-03T08:16:47;2.10;99.90
39503;DHT22;26970;49.900;10.774;2023-04-03T08:19:14;2.00;99.90
39503;DHT22;26970;49.900;10.774;2023-04-03T08:21:41;1.90;99.90
39503;DHT22;26970;49.900;10.774;2023-04-03T08:24:07;2.00;99.90
39503;DHT22;26970;49.900;10.774;2023-04-03T08:26:34;2.00;99.90
39503;DHT22;26970;49.900;10.774;2023-04-03T08:29:00;2.30;99.90
39503;DHT22;26970;49.900;10.774;2023-04-03T08:31:25;2.40;99.90
39503;DHT22;26970;49.900;10.774;2023-04-03T08:33:52;2.70;99.90
39503;DHT22;26970;49.900;10.774;2023-04-03T08:36:23;3.00;99.90
39503;DHT22;26970;49.900;10.774;2023-04-03T08:38:51;3.10;99.90
39503;DHT22;26970;49.900;10.774;2023-04-03T08:41:26;3.10;99.90
39503;DHT22;26970;49.900;10.774;2023-04-03T08:46:30;3.10;99.90
39503;DHT22;26970;49.900;10.774;2023-04-03T08:48:58;2.90;99.90
39503;DHT22;26970;49.900;10.774;2023-04-03T08:51:26;2.90;99.90
39503;DHT22;26970;49.900;10.774;2023-04-03T08:54:00;2.90;99.90
39503;DHT22;26970;49.900;10.774;2023-04-03T08:56:29;2.60;99.90
39503;DHT22;26970;49.900;10.774;2023-04-03T08:59:05;2.50;99.90
39503;DHT22;26970;49.900;10.774;2023-04-03T09:01:39;2.50;99.90
39503;DHT22;26970;49.900;10.774;2023-04-03T09:04:15;2.50;99.90
39503;DHT22;26970;49.900;10.774;2023-04-03T09:06:44;2.60;99.90
39503;DHT22;26970;49.900;10.774;2023-04-03T09:20:29;2.90;99.90
39503;DHT22;26970;49.900;10.774;2023-04-03T09:22:57;2.90;99.90
39503;DHT22;26970;49.900;10.774;2023-04-03T09:25:23;2.80;99.90
39503;DHT22;26970;49.900;10.774;2023-04-03T09:27:51;2.90;99.90
39503;DHT22;26970;49.900;10.774;2023-04-03T09:30:24;2.90;99.90
39503;DHT22;26970;49.900;10.774;2023-04-03T09:32:52;2.80;99.90
39503;DHT22;26970;49.900;10.774;2023-04-03T09:35:29;2.80;99.90
39503;DHT22;26970;49.900;10.774;2023-04-03T09:40:40;3.30;99.90
39503;DHT22;26970;49.900;10.774;2023-04-03T09:43:25;3.20;99.90
39503;DHT22;26970;49.900;10.774;2023-04-03T09:45:52;2.70;99.90
39503;DHT22;26970;49.900;10.774;2023-04-03T09:48:24;2.90;99.90
39503;DHT22;26970;49.900;10.774;2023-04-03T09:55:57;3.10;99.90
39503;DHT22;26970;49.900;10.774;2023-04-03T09:58:38;3.00;99.90
39503;DHT22;26970;49.900;10.774;2023-04-03T10:01:06;3.00;99.90
39503;DHT22;26970;49.900;10.774;2023-04-03T10:03:45;3.00;99.90
39503;DHT22;26970;49.900;10.774;2023-04-03T10:06:23;3.00;99.90
39503;DHT22;26970;49.900;10.774;2023-04-03T10:09:00;3.30;99.90
39503;DHT22;26970;49.900;10.774;2023-04-03T10:11:28;3.50;99.90
39503;DHT22;26970;49.900;10.774;2023-04-03T10:13:59;3.40;99.90
39503;DHT22;26970;49.900;10.774;2023-04-03T10:16:38;3.70;99.90
39503;DHT22;26970;49.900;10.774;2023-04-03T10:22:16;3.70;99.90
39503;DHT22;26970;49.900;10.774;2023-04-03T10:25:07;3.80;99.90
39503;DHT22;26970;49.900;10.774;2023-04-03T10:27:59;3.90;99.90
39503;DHT22;26970;49.900;10.774;2023-04-03T10:33:52;3.90;99.90
39503;DHT22;26970;49.900;10.774;2023-04-03T10:39:18;4.30;99.90
39503;DHT22;26970;49.900;10.774;2023-04-03T10:57:54;3.80;99.90
39503;DHT22;26970;49.900;10.774;2023-04-03T11:00:43;4.00;99.90
39503;DHT22;26970;49.900;10.774;2023-04-03T11:05:55;4.10;99.90
39503;DHT22;26970;49.900;10.774;2023-04-03T11:11:02;4.30;99.90
39503;DHT22;26970;49.900;10.774;2023-04-03T11:15:58;4.10;99.90
39503;DHT22;26970;49.900;10.774;2023-04-03T11:18:47;4.60;99.90
39503;DHT22;26970;49.900;10.774;2023-04-03T11:21:29;4.60;99.90
39503;DHT22;26970;49.900;10.774;2023-04-03T11:23:57;4.50;99.90
39503;DHT22;26970;49.900;10.774;2023-04-03T11:26:29;4.60;99.90
39503;DHT22;26970;49.900;10.774;2023-04-03T11:29:03;4.70;99.90
39503;DHT22;26970;49.900;10.774;2023-04-03T11:36:58;4.20;99.90
39503;DHT22;26970;49.900;10.774;2023-04-03T11:39:31;4.20;99.90
39503;DHT22;26970;49.900;10.774;2023-04-03T11:42:15;4.20;99.90
39503;DHT22;26970;49.900;10.774;2023-04-03T11:44:41;4.20;99.90
39503;DHT22;26970;49.900;10.774;2023-04-03T11:47:12;4.30;99.90
39503;DHT22;26970;49.900;10.774;2023-04-03T11:50:03;4.30;99.90
39503;DHT22;26970;49.900;10.774;2023-04-03T11:58:10;4.50;99.90
39503;DHT22;26970;49.900;10.774;2023-04-03T12:16:28;4.50;99.90
39503;DHT22;26970;49.900;10.774;2023-04-03T12:19:01;4.50;99.90
39503;DHT22;26970;49.900;10.774;2023-04-03T12:40:24;4.50;99.90
39503;DHT22;26970;49.900;10.774;2023-04-03T12:48:15;5.00;99.90
39503;DHT22;26970;49.900;10.774;2023-04-03T12:50:43;4.80;99.60
39503;DHT22;26970;49.900;10.774;2023-04-03T12:53:22;4.70;99.30
39503;DHT22;26970;49.900;10.774;2023-04-03T12:55:54;4.80;99.90
39503;DHT22;26970;49.900;10.774;2023-04-03T12:58:27;5.00;99.90
39503;DHT22;26970;49.900;10.774;2023-04-03T13:01:00;5.00;99.90
39503;DHT22;26970;49.900;10.774;2023-04-03T13:03:29;5.00;99.90
39503;DHT22;26970;49.900;10.774;2023-04-03T13:06:03;5.00;99.90
39503;DHT22;26970;49.900;10.774;2023-04-03T13:08:31;5.10;99.90
39503;DHT22;26970;49.900;10.774;2023-04-03T13:11:08;4.80;99.90
39503;DHT22;26970;49.900;10.774;2023-04-03T13:13:56;4.90;99.90
39503;DHT22;26970;49.900;10.774;2023-04-03T13:16:26;5.00;99.90
39503;DHT22;26970;49.900;10.774;2023-04-03T13:18:55;4.90;98.80
39503;DHT22;26970;49.900;10.774;2023-04-03T13:21:32;5.00;98.70
39503;DHT22;26970;49.900;10.774;2023-04-03T13:24:02;4.90;99.30
39503;DHT22;26970;49.900;10.774;2023-04-03T13:26:31;4.90;99.50
39503;DHT22;26970;49.900;10.774;2023-04-03T13:29:18;5.10;99.10
39503;DHT22;26970;49.900;10.774;2023-04-03T13:31:59;5.10;99.90
39503;DHT22;26970;49.900;10.774;2023-04-03T13:34:38;5.20;99.90
39503;DHT22;26970;49.900;10.774;2023-04-03T13:37:23;5.10;99.90
39503;DHT22;26970;49.900;10.774;2023-04-03T13:42:36;5.20;99.50
39503;DHT22;26970;49.900;10.774;2023-04-03T13:47:44;5.20;99.30
39503;DHT22;26970;49.900;10.774;2023-04-03T13:50:20;5.30;99.90
39503;DHT22;26970;49.900;10.774;2023-04-03T13:52:53;5.40;99.00
39503;DHT22;26970;49.900;10.774;2023-04-03T13:55:32;5.30;99.90
39503;DHT22;26970;49.900;10.774;2023-04-03T13:58:24;5.40;99.90
39503;DHT22;26970;49.900;10.774;2023-04-03T14:00:54;5.30;99.90
39503;DHT22;26970;49.900;10.774;2023-04-03T14:03:34;5.30;99.90
39503;DHT22;26970;49.900;10.774;2023-04-03T14:06:05;5.30;98.60
39503;DHT22;26970;49.900;10.774;2023-04-03T14:08:35;5.30;99.90
39503;DHT22;26970;49.900;10.774;2023-04-03T14:11:05;5.20;99.90
39503;DHT22;26970;49.900;10.774;2023-04-03T14:13:36;5.20;99.40
39503;DHT22;26970;49.900;10.774;2023-04-03T14:16:06;5.20;99.90
39503;DHT22;26970;49.900;10.774;2023-04-03T14:18:33;5.20;99.20
39503;DHT22;26970;49.900;10.774;2023-04-03T14:20:59;5.30;99.90
39503;DHT22;26970;49.900;10.774;2023-04-03T14:23:26;5.30;99.20
39503;DHT22;26970;49.900;10.774;2023-04-03T14:25:52;5.30;98.40
39503;DHT22;26970;49.900;10.774;2023-04-03T14:28:25;5.50;99.80
39503;DHT22;26970;49.900;10.774;2023-04-03T14:30:53;5.70;99.90
39503;DHT22;26970;49.900;10.774;2023-04-03T14:33:21;5.40;99.10
39503;DHT22;26970;49.900;10.774;2023-04-03T14:35:48;5.10;98.20
39503;DHT22;26970;49.900;10.774;2023-04-03T14:38:29;4.90;97.90
39503;DHT22;26970;49.900;10.774;2023-04-03T14:40:59;4.80;98.30
39503;DHT22;26970;49.900;10.774;2023-04-03T14:43:27;4.90;98.80
39503;DHT22;26970;49.900;10.774;2023-04-03T14:45:55;5.20;99.90
39503;DHT22;26970;49.900;10.774;2023-04-03T14:48:24;5.20;98.80
39503;DHT22;26970;49.900;10.774;2023-04-03T14:50:51;5.20;98.80
39503;DHT22;26970;49.900;10.774;2023-04-03T14:53:20;5.10;97.70
39503;DHT22;26970;49.900;10.774;2023-04-03T14:55:55;5.10;99.40
39503;DHT22;26970;49.900;10.774;2023-04-03T14:58:22;5.30;99.90
39503;DHT22;26970;49.900;10.774;2023-04-03T15:00:49;5.40;99.90
39503;DHT22;26970;49.900;10.774;2023-04-03T15:03:19;5.50;99.90
39503;DHT22;26970;49.900;10.774;2023-04-03T15:05:48;5.30;99.90
39503;DHT22;26970;49.900;10.774;2023-04-03T15:08:20;5.10;99.90
39503;DHT22;26970;49.900;10.774;2023-04-03T15:10:46;5.00;98.20
39503;DHT22;26970;49.900;10.774;2023-04-03T15:13:27;5.10;99.90
39503;DHT22;26970;49.900;10.774;2023-04-03T15:15:57;5.20;97.70
39503;DHT22;26970;49.900;10.774;2023-04-03T15:18:32;5.00;97.20
39503;DHT22;26970;49.900;10.774;2023-04-03T15:21:00;4.90;99.00
39503;DHT22;26970;49.900;10.774;2023-04-03T15:23:27;5.00;98.70
39503;DHT22;26970;49.900;10.774;2023-04-03T15:25:54;5.00;99.40
39503;DHT22;26970;49.900;10.774;2023-04-03T15:28:38;5.00;98.50
39503;DHT22;26970;49.900;10.774;2023-04-03T15:31:04;4.90;97.60
39503;DHT22;26970;49.900;10.774;2023-04-03T15:33:30;4.90;99.00
39503;DHT22;26970;49.900;10.774;2023-04-03T15:35:56;4.70;99.70
39503;DHT22;26970;49.900;10.774;2023-04-03T15:38:22;4.60;99.90
39503;DHT22;26970;49.900;10.774;2023-04-03T15:40:47;4.70;99.90
39503;DHT22;26970;49.900;10.774;2023-04-03T15:43:13;4.70;99.90
39503;DHT22;26970;49.900;10.774;2023-04-03T15:45:39;4.80;99.60
39503;DHT22;26970;49.900;10.774;2023-04-03T15:48:06;4.80;98.70
39503;DHT22;26970;49.900;10.774;2023-04-03T15:50:32;4.70;98.90
39503;DHT22;26970;49.900;10.774;2023-04-03T15:52:58;4.70;99.10
39503;DHT22;26970;49.900;10.774;2023-04-03T15:55:25;4.70;99.90
39503;DHT22;26970;49.900;10.774;2023-04-03T15:57:52;4.70;99.90
39503;DHT22;26970;49.900;10.774;2023-04-03T16:00:17;4.60;99.90
39503;DHT22;26970;49.900;10.774;2023-04-03T16:02:46;4.30;99.80
39503;DHT22;26970;49.900;10.774;2023-04-03T16:05:12;4.20;99.90
39503;DHT22;26970;49.900;10.774;2023-04-03T16:07:40;4.20;99.90
39503;DHT22;26970;49.900;10.774;2023-04-03T16:10:07;4.00;99.50
39503;DHT22;26970;49.900;10.774;2023-04-03T16:12:34;4.10;99.90
39503;DHT22;26970;49.900;10.774;2023-04-03T16:14:59;4.30;99.90
39503;DHT22;26970;49.900;10.774;2023-04-03T16:17:26;4.30;99.80
39503;DHT22;26970;49.900;10.774;2023-04-03T16:19:53;4.20;99.10
39503;DHT22;26970;49.900;10.774;2023-04-03T16:22:19;4.30;99.10
39503;DHT22;26970;49.900;10.774;2023-04-03T16:24:45;4.30;99.90
39503;DHT22;26970;49.900;10.774;2023-04-03T16:27:11;4.40;99.90
39503;DHT22;26970;49.900;10.774;2023-04-03T16:29:36;4.40;99.90
39503;DHT22;26970;49.900;10.774;2023-04-03T16:32:02;4.20;99.90
39503;DHT22;26970;49.900;10.774;2023-04-03T16:34:28;4.10;99.90
39503;DHT22;26970;49.900;10.774;2023-04-03T16:36:56;4.10;99.90
39503;DHT22;26970;49.900;10.774;2023-04-03T16:39:21;4.00;99.90
39503;DHT22;26970;49.900;10.774;2023-04-03T16:41:47;4.00;99.90
39503;DHT22;26970;49.900;10.774;2023-04-03T16:44:12;4.00;99.90
39503;DHT22;26970;49.900;10.774;2023-04-03T16:46:39;4.00;99.90
39503;DHT22;26970;49.900;10.774;2023-04-03T16:49:04;4.00;99.90
39503;DHT22;26970;49.900;10.774;2023-04-03T16:51:30;4.00;99.90
39503;DHT22;26970;49.900;10.774;2023-04-03T16:53:57;3.90;99.90
39503;DHT22;26970;49.900;10.774;2023-04-03T16:56:23;3.80;99.90
39503;DHT22;26970;49.900;10.774;2023-04-03T16:58:49;3.80;99.90
39503;DHT22;26970;49.900;10.774;2023-04-03T17:01:17;3.70;99.90
39503;DHT22;26970;49.900;10.774;2023-04-03T17:03:42;3.60;99.90
39503;DHT22;26970;49.900;10.774;2023-04-03T17:06:11;3.60;99.90
39503;DHT22;26970;49.900;10.774;2023-04-03T17:08:42;3.50;99.90
39503;DHT22;26970;49.900;10.774;2023-04-03T17:11:08;3.50;99.90
39503;DHT22;26970;49.900;10.774;2023-04-03T17:13:34;3.50;99.90
39503;DHT22;26970;49.900;10.774;2023-04-03T17:16:02;3.40;99.90
39503;DHT22;26970;49.900;10.774;2023-04-03T17:18:31;3.30;99.90
39503;DHT22;26970;49.900;10.774;2023-04-03T17:20:57;3.20;99.90
39503;DHT22;26970;49.900;10.774;2023-04-03T17:23:26;3.20;99.90
39503;DHT22;26970;49.900;10.774;2023-04-03T17:25:54;3.10;99.90
39503;DHT22;26970;49.900;10.774;2023-04-03T17:28:20;3.10;99.90
39503;DHT22;26970;49.900;10.774;2023-04-03T17:31:00;3.10;99.90
39503;DHT22;26970;49.900;10.774;2023-04-03T17:33:26;3.00;99.90
39503;DHT22;26970;49.900;10.774;2023-04-03T17:35:55;2.90;99.90
39503;DHT22;26970;49.900;10.774;2023-04-03T17:38:21;3.00;99.90